Search for airport 
image banner adimage banner adimage banner ad
image banner ad

CN18 - San Bernardino Community Hospital

Located in San Bernardino, United States

ICAO - CN18, IATA -

Data provided by Airmate  

General information

Coordinates: N34°7'50" W117°19'18"
Elevation is 1213 feet MSL.
 
View others Airports in California

Operational data

Special qualification required
Current time UTC:
Current local time:
Weather at : KSBD - San Bernardino Intl ( 9 km )
METAR: KSBD 240820Z AUTO 00000KT 10SM SCT110 20/13 A3001 RMK AO2 T01960127
TAF: KSBD 240520Z 2406/2506 VRB05KT P6SM SCT100 FM242230 26010KT P6SM SCT100 FM250400 VRB05KT P6SM SCT100
View NOTAMs / SUP AIP / TFR affecting this airport [VIEW]
Communications frequencies: [VIEW]

Runways:

Airport contact information

Address: San Bernardino United States

Satellite view of CN18